createdAt,value
2018-05-18T00:02:04.663Z,79.91
2018-05-18T00:04:32.878Z,80.15
2018-05-18T00:07:01.596Z,80.75
2018-05-18T00:09:29.839Z,81.31
2018-05-18T00:11:58.615Z,80.78
2018-05-18T00:14:27.170Z,80.92
2018-05-18T00:16:55.907Z,81.60
2018-05-18T00:19:24.596Z,81.17
2018-05-18T00:21:52.918Z,81.68
2018-05-18T00:24:21.226Z,80.69
2018-05-18T00:26:49.795Z,80.63
2018-05-18T00:29:18.423Z,81.13
2018-05-18T00:31:46.690Z,81.48
2018-05-18T00:34:15.226Z,81.37
2018-05-18T00:36:43.674Z,81.71
2018-05-18T00:39:12.192Z,81.19
2018-05-18T00:41:40.642Z,81.44
2018-05-18T00:44:09.300Z,81.16
2018-05-18T00:46:37.697Z,81.40
2018-05-18T00:49:06.280Z,81.34
2018-05-18T00:51:34.968Z,81.71
2018-05-18T00:54:03.389Z,81.89
2018-05-18T00:56:31.771Z,81.68
2018-05-18T00:59:00.780Z,82.06
2018-05-18T01:01:29.047Z,82.44
2018-05-18T01:03:57.655Z,82.27
2018-05-18T01:06:26.307Z,82.90
2018-05-18T01:08:54.959Z,82.31
2018-05-18T01:11:23.462Z,82.09
2018-05-18T01:13:51.945Z,81.98
2018-05-18T01:16:20.133Z,82.22
2018-05-18T01:18:48.755Z,82.36
2018-05-18T01:21:17.538Z,82.30
2018-05-18T01:23:46.283Z,82.31
2018-05-18T01:26:14.779Z,82.02
2018-05-18T01:28:43.463Z,82.08
2018-05-18T01:31:12.110Z,82.34
2018-05-18T01:33:40.555Z,82.54
2018-05-18T01:36:09.646Z,82.64
2018-05-18T01:38:38.051Z,82.33
2018-05-18T01:41:06.486Z,82.76
2018-05-18T01:43:34.987Z,83.04
2018-05-18T01:46:03.695Z,83.10
2018-05-18T01:48:32.111Z,83.27
2018-05-18T01:51:00.635Z,83.14
2018-05-18T01:53:29.191Z,83.14
2018-05-18T01:55:57.866Z,83.39
2018-05-18T01:58:26.519Z,83.88
2018-05-18T02:00:55.078Z,83.51
2018-05-18T02:03:23.760Z,83.26
2018-05-18T02:05:52.239Z,83.00
2018-05-18T02:08:20.822Z,82.90
2018-05-18T02:10:49.638Z,82.78
2018-05-18T02:13:18.601Z,82.50
2018-05-18T02:15:47.278Z,82.79
2018-05-18T02:18:15.991Z,81.99
2018-05-18T02:20:44.823Z,82.08
2018-05-18T02:23:13.374Z,82.26
2018-05-18T02:25:42.264Z,81.52
2018-05-18T02:28:10.546Z,81.59
2018-05-18T02:30:39.119Z,81.02
2018-05-18T02:33:07.680Z,81.19
2018-05-18T02:35:36.267Z,81.18
2018-05-18T02:38:04.707Z,81.58
2018-05-18T02:40:33.322Z,82.08
2018-05-18T02:43:01.939Z,82.27
2018-05-18T02:45:30.530Z,82.22
2018-05-18T02:47:58.991Z,82.18
2018-05-18T02:50:27.668Z,81.93
2018-05-18T02:52:57.118Z,82.01
2018-05-18T02:55:25.724Z,81.86
2018-05-18T02:57:54.423Z,81.70
2018-05-18T03:00:22.673Z,81.53
2018-05-18T03:02:51.276Z,81.36
2018-05-18T03:05:20.079Z,81.21
2018-05-18T03:07:49.134Z,81.28
2018-05-18T03:10:17.467Z,81.19
2018-05-18T03:12:45.996Z,81.38
2018-05-18T03:15:14.679Z,80.04
2018-05-18T03:17:43.383Z,80.33
2018-05-18T03:20:11.739Z,80.75
2018-05-18T03:22:40.132Z,81.23
2018-05-18T03:25:09.294Z,81.34
2018-05-18T03:27:38.125Z,81.10
2018-05-18T03:30:06.572Z,81.31
2018-05-18T03:32:35.060Z,81.33
2018-05-18T03:35:03.647Z,81.03
2018-05-18T03:37:32.343Z,80.58
2018-05-18T03:40:01.568Z,80.55
2018-05-18T03:42:29.619Z,80.34
2018-05-18T03:44:58.323Z,80.44
2018-05-18T03:47:26.903Z,80.46
2018-05-18T03:49:55.430Z,80.24
2018-05-18T03:52:24.266Z,80.37
2018-05-18T03:54:52.813Z,80.46
2018-05-18T03:57:21.519Z,80.70
2018-05-18T03:59:49.962Z,80.59
2018-05-18T04:02:24.750Z,80.60
2018-05-18T04:05:00.611Z,80.82
2018-05-18T04:07:35.268Z,80.78
2018-05-18T04:10:04.019Z,80.69
2018-05-18T04:12:32.619Z,80.50
2018-05-18T04:15:01.232Z,80.62
2018-05-18T04:17:29.957Z,80.29
2018-05-18T04:19:58.547Z,80.22
2018-05-18T04:22:27.296Z,80.36
2018-05-18T04:24:57.055Z,80.03
2018-05-18T04:27:25.683Z,79.55
2018-05-18T04:29:54.317Z,79.36
2018-05-18T04:32:22.939Z,79.63
2018-05-18T04:34:51.572Z,79.17
2018-05-18T04:37:20.191Z,78.85
2018-05-18T04:39:48.710Z,78.80
2018-05-18T04:42:17.023Z,80.26
2018-05-18T04:44:45.420Z,78.73
2018-05-18T04:47:14.144Z,78.25
2018-05-18T04:49:42.676Z,77.16
2018-05-18T04:52:11.215Z,76.47
2018-05-18T04:54:39.551Z,76.60
2018-05-18T04:57:08.065Z,76.82
2018-05-18T04:59:36.873Z,76.73
2018-05-18T05:02:05.617Z,76.37
2018-05-18T05:04:34.136Z,75.95
2018-05-18T05:07:02.551Z,75.54
2018-05-18T05:09:31.066Z,75.34
2018-05-18T05:11:59.244Z,74.74
2018-05-18T05:14:27.767Z,74.93
2018-05-18T05:16:56.491Z,74.43
2018-05-18T05:19:25.116Z,73.98
2018-05-18T05:21:53.608Z,73.68
2018-05-18T05:24:22.167Z,74.24
2018-05-18T05:26:50.794Z,73.46
2018-05-18T05:29:19.439Z,73.28
2018-05-18T05:31:48.394Z,72.74
2018-05-18T05:34:17.831Z,72.31
2018-05-18T05:36:46.246Z,71.94
2018-05-18T05:39:14.666Z,71.75
2018-05-18T05:41:42.967Z,71.65
2018-05-18T05:44:11.279Z,71.70
2018-05-18T05:46:40.270Z,71.69
2018-05-18T05:49:08.732Z,71.50
2018-05-18T05:51:37.306Z,70.71
2018-05-18T05:54:05.843Z,70.31
2018-05-18T05:56:34.288Z,70.06
2018-05-18T05:59:02.809Z,69.28
2018-05-18T06:01:31.589Z,68.90
2018-05-18T06:04:00.063Z,68.70
2018-05-18T06:06:28.232Z,68.28
2018-05-18T06:08:56.826Z,67.09
2018-05-18T06:11:25.106Z,66.96
2018-05-18T06:13:53.595Z,66.01
2018-05-18T06:16:21.910Z,65.84
2018-05-18T06:18:50.366Z,64.89
2018-05-18T06:21:19.132Z,65.23
2018-05-18T06:23:47.738Z,65.08
2018-05-18T06:26:16.279Z,65.28
2018-05-18T06:28:45.001Z,64.18
2018-05-18T06:31:13.493Z,63.79
2018-05-18T06:33:41.670Z,63.51
2018-05-18T06:36:09.859Z,63.67
2018-05-18T06:38:38.283Z,60.31
2018-05-18T06:41:06.536Z,61.56
2018-05-18T06:43:34.951Z,62.02
2018-05-18T06:46:03.487Z,60.09
2018-05-18T06:48:33.047Z,61.30
2018-05-18T06:51:02.090Z,59.73
2018-05-18T06:53:30.666Z,59.10
2018-05-18T06:56:01.333Z,57.26
2018-05-18T06:58:29.832Z,57.90
2018-05-18T07:00:58.484Z,57.73
2018-05-18T07:03:29.723Z,54.99
2018-05-18T07:05:58.072Z,53.33
2018-05-18T07:08:26.453Z,53.00
2018-05-18T07:10:56.928Z,51.10
2018-05-18T07:13:25.209Z,50.35
2018-05-18T07:15:53.555Z,49.00
2018-05-18T07:18:24.329Z,48.39
2018-05-18T07:20:52.676Z,48.70
2018-05-18T07:23:21.043Z,45.67
2018-05-18T07:25:49.467Z,44.79
2018-05-18T07:28:19.405Z,42.50
2018-05-18T07:30:53.488Z,46.33
2018-05-18T07:33:25.478Z,45.84
2018-05-18T07:35:53.880Z,44.65
2018-05-18T07:38:22.460Z,42.85
2018-05-18T07:40:50.960Z,42.21
2018-05-18T07:43:19.438Z,40.46
2018-05-18T07:45:48.243Z,40.75
2018-05-18T07:48:17.443Z,40.40
2018-05-18T07:50:45.709Z,40.12
2018-05-18T07:53:14.231Z,39.30
2018-05-18T07:55:42.507Z,39.96
2018-05-18T07:58:11.139Z,39.08
2018-05-18T08:00:39.684Z,39.20
2018-05-18T08:03:08.235Z,38.53
2018-05-18T08:05:37.083Z,37.36
2018-05-18T08:08:05.847Z,35.64
2018-05-18T08:10:34.950Z,34.31
2018-05-18T08:13:03.319Z,35.09
2018-05-18T08:15:31.607Z,33.54
2018-05-18T08:18:00.155Z,32.49
2018-05-18T08:20:28.515Z,32.50
2018-05-18T08:22:59.059Z,30.54
2018-05-18T08:25:27.462Z,30.81
2018-05-18T08:27:59.762Z,29.68
2018-05-18T08:30:34.231Z,28.97
2018-05-18T08:33:02.554Z,29.50
2018-05-18T08:35:32.506Z,29.25
2018-05-18T08:38:00.881Z,30.82
2018-05-18T08:40:30.751Z,30.03
2018-05-18T08:42:59.132Z,29.56
2018-05-18T08:45:33.346Z,26.92
2018-05-18T08:48:02.111Z,29.06
2018-05-18T08:50:34.024Z,28.81
2018-05-18T08:53:02.645Z,27.97
2018-05-18T08:55:30.989Z,28.07
2018-05-18T08:57:59.344Z,25.64
2018-05-18T09:00:27.733Z,26.92
2018-05-18T09:02:59.598Z,26.33
2018-05-18T09:05:27.970Z,25.99
2018-05-18T09:07:56.372Z,23.12
2018-05-18T09:10:26.685Z,23.38
2018-05-18T09:12:55.280Z,23.70
2018-05-18T09:15:23.675Z,24.07
2018-05-18T09:17:52.028Z,23.85
2018-05-18T09:20:20.405Z,25.24
2018-05-18T09:22:48.751Z,24.89
2018-05-18T09:25:17.139Z,26.04
2018-05-18T09:27:47.123Z,25.25
2018-05-18T09:30:17.062Z,24.75
2018-05-18T09:32:45.808Z,23.75
2018-05-18T09:35:14.166Z,23.33
2018-05-18T09:37:42.518Z,24.68
2018-05-18T09:40:10.937Z,25.24
2018-05-18T09:42:39.298Z,24.05
2018-05-18T09:45:07.837Z,24.41
2018-05-18T09:47:36.226Z,24.23
2018-05-18T09:50:04.607Z,23.92
2018-05-18T09:52:32.999Z,22.75
2018-05-18T09:55:03.216Z,23.88
2018-05-18T09:57:31.342Z,22.65
2018-05-18T09:59:59.713Z,22.34
2018-05-18T10:02:31.357Z,22.43
2018-05-18T10:04:59.758Z,23.83
2018-05-18T10:07:28.147Z,23.63
2018-05-18T10:09:56.522Z,25.33
2018-05-18T10:12:24.943Z,24.56
2018-05-18T10:14:53.296Z,24.25
2018-05-18T10:17:23.097Z,25.29
2018-05-18T10:19:51.486Z,24.66
2018-05-18T10:22:19.856Z,24.68
2018-05-18T10:24:48.227Z,24.44
2018-05-18T10:27:16.588Z,24.90
2018-05-18T10:29:46.688Z,23.98
2018-05-18T10:32:16.454Z,25.70
2018-05-18T10:34:44.859Z,25.18
2018-05-18T10:37:14.842Z,23.97
2018-05-18T10:39:43.205Z,23.24
2018-05-18T10:42:13.063Z,24.83
2018-05-18T10:44:41.423Z,23.70
2018-05-18T10:47:10.955Z,26.50
2018-05-18T10:49:39.308Z,24.36
2018-05-18T10:52:07.668Z,25.12
2018-05-18T10:54:36.063Z,25.99
2018-05-18T10:57:04.422Z,24.85
2018-05-18T10:59:32.775Z,26.43
2018-05-18T11:02:01.177Z,26.01
2018-05-18T11:04:29.539Z,24.97
2018-05-18T11:06:59.978Z,26.29
2018-05-18T11:09:28.314Z,27.52
2018-05-18T11:11:56.651Z,26.48
2018-05-18T11:14:25.022Z,27.40
2018-05-18T11:16:53.414Z,27.99
2018-05-18T11:19:21.933Z,26.35
2018-05-18T11:21:50.330Z,30.94
2018-05-18T11:24:18.683Z,31.34
2018-05-18T11:26:47.280Z,31.27
2018-05-18T11:29:15.638Z,30.11
2018-05-18T11:31:44.037Z,30.99
2018-05-18T11:34:12.420Z,29.63
2018-05-18T11:36:40.799Z,30.34
2018-05-18T11:39:09.294Z,29.21
2018-05-18T11:41:36.474Z,30.41
2018-05-18T11:44:04.862Z,29.55
2018-05-18T11:46:34.630Z,31.18
2018-05-18T11:49:02.973Z,33.45
2018-05-18T11:51:31.326Z,32.98
2018-05-18T11:53:59.719Z,33.35
2018-05-18T11:56:29.104Z,32.01
2018-05-18T11:58:57.483Z,33.05
2018-05-18T12:01:25.854Z,33.36
2018-05-18T12:03:54.172Z,32.27
2018-05-18T12:06:22.603Z,33.03
2018-05-18T12:08:50.961Z,33.10
2018-05-18T12:11:19.315Z,32.76
2018-05-18T12:13:47.726Z,32.00
2018-05-18T12:16:16.077Z,32.67
2018-05-18T12:18:44.449Z,32.64
2018-05-18T12:21:12.785Z,33.00
2018-05-18T12:23:41.304Z,33.36
2018-05-18T12:26:09.658Z,31.39
2018-05-18T12:28:38.284Z,32.09
2018-05-18T12:31:06.647Z,34.27
2018-05-18T12:33:35.768Z,33.53
2018-05-18T12:36:04.108Z,33.16
2018-05-18T12:38:32.514Z,33.51
2018-05-18T12:41:00.875Z,33.74
2018-05-18T12:43:29.266Z,32.87
2018-05-18T12:45:57.672Z,31.87
2018-05-18T12:48:26.048Z,33.04
2018-05-18T12:50:54.802Z,34.43
2018-05-18T12:53:23.194Z,32.76
2018-05-18T12:55:51.563Z,33.38
2018-05-18T12:58:18.844Z,33.34
2018-05-18T13:00:47.146Z,33.30
2018-05-18T13:03:14.400Z,33.20
2018-05-18T13:05:42.723Z,34.05
2018-05-18T13:08:10.013Z,34.00
2018-05-18T13:10:38.337Z,33.37
2018-05-18T13:13:06.342Z,35.70
2018-05-18T13:15:34.661Z,34.46
2018-05-18T13:18:03.067Z,35.10
2018-05-18T13:20:31.451Z,35.34
2018-05-18T13:22:59.975Z,37.28
2018-05-18T13:25:28.322Z,35.67
2018-05-18T13:27:57.440Z,35.05
2018-05-18T13:30:26.205Z,35.41
2018-05-18T13:32:54.512Z,35.40
2018-05-18T13:35:22.870Z,36.40
2018-05-18T13:37:51.296Z,36.74
2018-05-18T13:40:19.608Z,36.35
2018-05-18T13:42:47.981Z,35.90
2018-05-18T13:45:16.380Z,38.66
2018-05-18T13:47:43.666Z,38.24
2018-05-18T13:50:12.014Z,37.58
2018-05-18T13:52:41.427Z,37.73
2018-05-18T13:55:09.783Z,37.38
2018-05-18T13:57:38.122Z,38.36
2018-05-18T14:00:06.532Z,38.10
2018-05-18T14:02:34.834Z,38.06
2018-05-18T14:05:03.236Z,37.40
2018-05-18T14:07:31.682Z,36.70
2018-05-18T14:10:00.064Z,37.04
2018-05-18T14:12:28.411Z,38.08
2018-05-18T14:14:56.764Z,38.65
2018-05-18T14:17:25.148Z,38.41
2018-05-18T14:19:53.500Z,38.30
2018-05-18T14:22:21.940Z,37.59
2018-05-18T14:24:50.331Z,37.62
2018-05-18T14:27:18.779Z,38.41
2018-05-18T14:29:47.175Z,37.98
2018-05-18T14:32:15.524Z,37.63
2018-05-18T14:34:43.955Z,38.70
2018-05-18T14:37:12.533Z,37.99
2018-05-18T14:39:40.861Z,38.18
2018-05-18T14:42:09.243Z,38.77
2018-05-18T14:44:37.587Z,38.46
2018-05-18T14:47:06.072Z,37.97
2018-05-18T14:49:34.428Z,38.44
2018-05-18T14:52:02.777Z,38.32
2018-05-18T14:54:31.471Z,38.75
2018-05-18T14:57:01.791Z,40.65
2018-05-18T14:59:30.128Z,41.19
2018-05-18T15:02:00.566Z,41.08
2018-05-18T15:04:28.925Z,40.08
2018-05-18T15:06:57.320Z,39.37
2018-05-18T15:09:25.675Z,39.64
2018-05-18T15:11:53.970Z,41.59
2018-05-18T15:14:22.314Z,41.54
2018-05-18T15:16:50.646Z,40.84
2018-05-18T15:19:19.000Z,39.87
2018-05-18T15:21:47.371Z,40.10
2018-05-18T15:24:15.819Z,39.51
2018-05-18T15:26:44.216Z,37.72
2018-05-18T15:29:12.596Z,39.14
2018-05-18T15:31:40.972Z,38.46
2018-05-18T15:34:09.287Z,38.81
2018-05-18T15:36:37.690Z,41.57
2018-05-18T15:39:06.145Z,41.75
2018-05-18T15:41:34.515Z,42.27
2018-05-18T15:44:02.911Z,42.08
2018-05-18T15:46:31.610Z,42.62
2018-05-18T15:49:00.029Z,42.55
2018-05-18T15:51:28.369Z,42.68
2018-05-18T15:53:56.761Z,43.09
2018-05-18T15:56:25.119Z,43.92
2018-05-18T15:58:53.446Z,44.03
2018-05-18T16:01:21.782Z,44.89
2018-05-18T16:03:50.207Z,45.04
2018-05-18T16:06:18.580Z,44.83
2018-05-18T16:08:46.931Z,44.49
2018-05-18T16:11:15.330Z,45.26
2018-05-18T16:13:43.690Z,45.46
2018-05-18T16:16:12.156Z,45.70
2018-05-18T16:18:40.481Z,46.35
2018-05-18T16:21:08.887Z,45.86
2018-05-18T16:23:37.231Z,45.99
2018-05-18T16:26:05.598Z,46.19
2018-05-18T16:28:33.951Z,45.90
2018-05-18T16:31:03.571Z,46.29
2018-05-18T16:33:30.893Z,46.82
2018-05-18T16:35:59.241Z,46.61
2018-05-18T16:38:27.631Z,47.39
2018-05-18T16:40:55.930Z,46.71
2018-05-18T16:43:24.627Z,47.14
2018-05-18T16:45:51.916Z,47.38
2018-05-18T16:48:20.233Z,47.28
2018-05-18T16:50:48.623Z,47.29
2018-05-18T16:53:19.270Z,47.72
2018-05-18T16:55:47.612Z,47.69
2018-05-18T16:58:15.957Z,47.69
2018-05-18T17:00:44.720Z,47.46
2018-05-18T17:03:13.097Z,47.48
2018-05-18T17:05:41.416Z,47.35
2018-05-18T17:08:09.770Z,47.84
2018-05-18T17:10:38.160Z,47.72
2018-05-18T17:13:06.559Z,47.28
2018-05-18T17:15:34.923Z,47.08
2018-05-18T17:18:03.317Z,47.29
2018-05-18T17:20:31.703Z,46.80
2018-05-18T17:23:00.017Z,47.12
2018-05-18T17:25:28.355Z,47.23
2018-05-18T17:28:00.966Z,47.21
2018-05-18T17:30:29.319Z,46.92
2018-05-18T17:32:57.706Z,47.17
2018-05-18T17:35:26.454Z,47.38
2018-05-18T17:37:54.753Z,47.35
2018-05-18T17:40:29.867Z,47.96
2018-05-18T17:42:58.182Z,47.42
2018-05-18T17:45:26.531Z,47.86
2018-05-18T17:47:56.930Z,47.67
2018-05-18T17:50:25.228Z,47.97
2018-05-18T17:52:53.557Z,48.53
2018-05-18T17:55:24.001Z,49.13
2018-05-18T17:57:52.350Z,49.73
2018-05-18T18:00:20.696Z,49.55
2018-05-18T18:02:51.224Z,49.44
2018-05-18T18:05:21.690Z,48.96
2018-05-18T18:07:52.395Z,49.16
2018-05-18T18:10:20.699Z,49.51
2018-05-18T18:12:49.014Z,49.69
2018-05-18T18:15:17.732Z,49.83
2018-05-18T18:17:46.024Z,49.72
2018-05-18T18:20:14.394Z,49.59
2018-05-18T18:22:47.087Z,50.35
2018-05-18T18:25:15.443Z,50.81
2018-05-18T18:27:45.719Z,51.45
2018-05-18T18:30:14.485Z,51.76
2018-05-18T18:32:44.951Z,52.11
2018-05-18T18:35:13.323Z,52.72
2018-05-18T18:37:46.163Z,53.47
2018-05-18T18:40:16.795Z,53.67
2018-05-18T18:42:47.331Z,53.99
2018-05-18T18:45:15.666Z,54.09
2018-05-18T18:47:44.039Z,53.93
2018-05-18T18:50:14.523Z,53.77
2018-05-18T18:52:42.884Z,54.12
2018-05-18T18:55:13.468Z,54.54
2018-05-18T18:57:42.057Z,54.32
2018-05-18T19:00:12.517Z,54.60
2018-05-18T19:02:41.131Z,54.76
2018-05-18T19:05:09.501Z,55.27
2018-05-18T19:07:39.907Z,55.02
2018-05-18T19:10:08.527Z,55.04
2018-05-18T19:12:36.935Z,55.40
2018-05-18T19:15:05.378Z,55.54
2018-05-18T19:17:34.053Z,55.14
2018-05-18T19:20:04.639Z,55.59
2018-05-18T19:22:32.988Z,55.35
2018-05-18T19:25:03.639Z,55.39
2018-05-18T19:27:32.015Z,55.65
2018-05-18T19:30:00.380Z,55.65
2018-05-18T19:32:28.704Z,55.49
2018-05-18T19:34:57.026Z,55.73
2018-05-18T19:37:25.446Z,55.38
2018-05-18T19:39:53.784Z,55.81
2018-05-18T19:42:22.130Z,55.96
2018-05-18T19:44:50.488Z,55.61
2018-05-18T19:47:18.767Z,55.69
2018-05-18T19:49:47.074Z,56.23
2018-05-18T19:52:15.554Z,55.57
2018-05-18T19:54:43.859Z,56.02
2018-05-18T19:57:13.114Z,56.31
2018-05-18T19:59:41.364Z,55.44
2018-05-18T20:02:09.755Z,55.89
2018-05-18T20:04:38.099Z,55.96
2018-05-18T20:07:06.581Z,56.52
2018-05-18T20:09:39.279Z,56.31
2018-05-18T20:12:09.549Z,56.17
2018-05-18T20:14:37.924Z,55.80
2018-05-18T20:17:06.234Z,55.67
2018-05-18T20:19:34.556Z,55.90
2018-05-18T20:22:02.895Z,55.80
2018-05-18T20:24:31.198Z,55.44
2018-05-18T20:26:59.874Z,55.18
2018-05-18T20:29:28.245Z,54.58
2018-05-18T20:31:56.611Z,54.67
2018-05-18T20:34:25.255Z,54.67
2018-05-18T20:36:55.834Z,55.03
2018-05-18T20:39:24.162Z,54.55
2018-05-18T20:41:52.515Z,54.87
2018-05-18T20:44:20.926Z,55.03
2018-05-18T20:46:51.499Z,54.64
2018-05-18T20:49:22.090Z,54.88
2018-05-18T20:51:50.477Z,55.07
2018-05-18T20:54:18.806Z,55.14
2018-05-18T20:56:47.136Z,55.27
2018-05-18T20:59:15.516Z,55.03
2018-05-18T21:01:44.268Z,53.89
2018-05-18T21:04:12.615Z,54.08
2018-05-18T21:06:41.019Z,54.20
2018-05-18T21:09:10.950Z,54.52
2018-05-18T21:11:39.404Z,54.21
2018-05-18T21:14:07.729Z,54.95
2018-05-18T21:16:36.369Z,55.28
2018-05-18T21:19:04.687Z,55.26
2018-05-18T21:21:37.088Z,55.23
2018-05-18T21:24:05.396Z,55.68
2018-05-18T21:26:33.731Z,55.14
2018-05-18T21:29:02.096Z,55.21
2018-05-18T21:31:32.691Z,55.52
2018-05-18T21:34:05.475Z,56.16
2018-05-18T21:36:36.092Z,55.79
2018-05-18T21:39:04.436Z,55.89
2018-05-18T21:41:32.864Z,56.04
2018-05-18T21:44:01.191Z,55.97
2018-05-18T21:46:29.536Z,56.52
2018-05-18T21:49:02.324Z,56.08
2018-05-18T21:51:36.976Z,56.07
2018-05-18T21:54:05.316Z,55.86
2018-05-18T21:56:33.678Z,55.93
2018-05-18T21:59:02.052Z,55.53
2018-05-18T22:01:30.411Z,55.92
2018-05-18T22:03:58.856Z,56.19
2018-05-18T22:06:27.264Z,56.99
2018-05-18T22:08:55.510Z,56.75
2018-05-18T22:11:26.116Z,57.87
2018-05-18T22:13:54.465Z,58.71
2018-05-18T22:16:22.830Z,58.70
2018-05-18T22:18:51.241Z,59.30
2018-05-18T22:21:19.572Z,59.40
2018-05-18T22:23:50.139Z,59.89
2018-05-18T22:26:18.486Z,60.19
2018-05-18T22:28:46.821Z,60.51
2018-05-18T22:31:17.399Z,60.89
2018-05-18T22:33:48.224Z,61.16
2018-05-18T22:36:16.662Z,61.13
2018-05-18T22:38:45.285Z,61.43
2018-05-18T22:41:14.616Z,61.54
2018-05-18T22:43:43.107Z,61.76
2018-05-18T22:46:12.208Z,62.11
2018-05-18T22:48:40.959Z,62.01
2018-05-18T22:51:09.595Z,61.54
2018-05-18T22:53:37.833Z,61.94
2018-05-18T22:56:07.096Z,62.00
2018-05-18T22:58:35.944Z,62.18
2018-05-18T23:01:04.399Z,62.70
2018-05-18T23:03:33.003Z,63.16
2018-05-18T23:06:01.664Z,63.74
2018-05-18T23:08:30.150Z,63.39
2018-05-18T23:10:58.552Z,63.76
2018-05-18T23:13:26.885Z,63.92
2018-05-18T23:15:55.458Z,63.98
2018-05-18T23:18:24.152Z,64.55
2018-05-18T23:20:52.802Z,64.93
2018-05-18T23:23:21.279Z,65.02
2018-05-18T23:25:49.634Z,64.83
2018-05-18T23:28:17.903Z,65.21
2018-05-18T23:30:46.463Z,64.81
2018-05-18T23:33:14.907Z,65.18
2018-05-18T23:35:43.771Z,65.64
2018-05-18T23:38:12.311Z,65.74
2018-05-18T23:40:41.175Z,65.85
2018-05-18T23:43:09.767Z,65.83
2018-05-18T23:45:38.244Z,65.97
2018-05-18T23:48:06.311Z,65.99
2018-05-18T23:50:34.763Z,66.74
2018-05-18T23:53:03.456Z,67.18
2018-05-18T23:55:32.027Z,66.89
2018-05-18T23:58:00.576Z,67.31
